createdAt,value
2022-11-07T00:00:19.485Z,0.00
2022-11-07T00:05:19.405Z,0.00
2022-11-07T00:10:19.353Z,0.00
2022-11-07T00:15:19.305Z,0.00
2022-11-07T00:20:19.234Z,0.00
2022-11-07T00:25:19.181Z,0.00
2022-11-07T00:30:19.104Z,0.00
2022-11-07T00:35:19.044Z,0.00
2022-11-07T00:40:18.984Z,0.00
2022-11-07T00:45:18.917Z,0.00
2022-11-07T00:50:18.857Z,0.00
2022-11-07T00:55:18.834Z,0.00
2022-11-07T01:00:18.743Z,0.00
2022-11-07T01:05:18.656Z,0.00
2022-11-07T01:10:18.618Z,0.00
2022-11-07T01:15:18.557Z,0.00
2022-11-07T01:20:18.498Z,0.00
2022-11-07T01:25:18.428Z,0.00
2022-11-07T01:30:18.391Z,0.00
2022-11-07T01:35:18.299Z,0.00
2022-11-07T01:40:18.238Z,0.00
2022-11-07T01:45:18.168Z,0.00
2022-11-07T01:50:18.118Z,0.00
2022-11-07T01:55:18.049Z,0.00
2022-11-07T02:00:17.988Z,0.00
2022-11-07T02:05:17.929Z,0.00
2022-11-07T02:10:17.850Z,0.00
2022-11-07T02:15:17.806Z,0.00
2022-11-07T02:20:17.758Z,0.00
2022-11-07T02:25:17.690Z,0.00
2022-11-07T02:30:17.614Z,0.00
2022-11-07T02:35:17.559Z,0.00
2022-11-07T02:40:17.493Z,0.00
2022-11-07T02:45:17.425Z,0.00
2022-11-07T02:50:17.361Z,0.00
2022-11-07T02:55:17.321Z,0.00
2022-11-07T03:00:17.253Z,0.00
2022-11-07T03:05:17.214Z,0.00
2022-11-07T03:10:17.112Z,0.00
2022-11-07T03:15:17.053Z,0.00
2022-11-07T03:20:16.994Z,0.00
2022-11-07T03:25:16.954Z,0.00
2022-11-07T03:30:16.876Z,0.00
2022-11-07T03:35:16.819Z,0.00
2022-11-07T03:40:16.733Z,0.00
2022-11-07T03:45:16.783Z,0.00
2022-11-07T03:50:16.615Z,0.00
2022-11-07T03:55:16.592Z,0.00
2022-11-07T04:00:16.507Z,0.00
2022-11-07T04:05:16.425Z,0.00
2022-11-07T04:10:16.364Z,0.00
2022-11-07T04:15:16.624Z,0.00
2022-11-07T04:20:16.238Z,0.00
2022-11-07T04:25:16.186Z,0.00
2022-11-07T04:30:16.117Z,0.00
2022-11-07T04:35:16.075Z,0.00
2022-11-07T04:40:16.016Z,0.00
2022-11-07T04:45:15.934Z,0.00
2022-11-07T04:50:15.855Z,0.00
2022-11-07T04:55:15.805Z,0.00
2022-11-07T05:00:15.728Z,0.00
2022-11-07T05:05:15.709Z,0.00
2022-11-07T05:10:15.625Z,0.00
2022-11-07T05:15:15.548Z,0.00
2022-11-07T05:20:15.489Z,0.00
2022-11-07T05:25:15.435Z,0.00
2022-11-07T05:30:15.524Z,0.00
2022-11-07T05:35:15.331Z,0.00
2022-11-07T05:40:15.260Z,0.00
2022-11-07T05:45:15.168Z,0.00
2022-11-07T05:50:15.119Z,0.00
2022-11-07T05:55:15.045Z,5.62
2022-11-07T06:00:14.980Z,5.62
2022-11-07T06:05:14.922Z,16.88
2022-11-07T06:10:14.862Z,22.50
2022-11-07T06:15:14.791Z,28.12
2022-11-07T06:20:14.725Z,33.75
2022-11-07T06:25:14.684Z,33.75
2022-11-07T06:30:14.627Z,45.00
2022-11-07T06:35:14.623Z,61.88
2022-11-07T06:40:14.475Z,73.12
2022-11-07T06:45:14.440Z,123.75
2022-11-07T06:50:14.344Z,151.88
2022-11-07T06:55:14.302Z,151.88
2022-11-07T07:00:14.233Z,146.25
2022-11-07T07:05:18.473Z,157.50
2022-11-07T07:10:15.105Z,253.12
2022-11-07T07:15:14.048Z,298.12
2022-11-07T07:20:14.005Z,382.50
2022-11-07T07:25:13.915Z,230.62
2022-11-07T07:30:13.851Z,286.88
2022-11-07T07:35:13.793Z,208.12
2022-11-07T07:40:13.724Z,191.25
2022-11-07T07:45:13.683Z,236.25
2022-11-07T07:50:13.612Z,230.62
2022-11-07T07:55:13.547Z,247.50
2022-11-07T08:00:13.481Z,365.62
2022-11-07T08:05:13.421Z,382.50
2022-11-07T08:10:39.594Z,421.88
2022-11-07T08:15:14.296Z,455.62
2022-11-07T08:20:13.234Z,500.62
2022-11-07T08:25:13.181Z,416.25
2022-11-07T08:30:17.807Z,455.62
2022-11-07T08:35:14.047Z,433.12
2022-11-07T08:40:12.986Z,483.75
2022-11-07T08:45:12.946Z,534.38
2022-11-07T08:50:12.859Z,618.75
2022-11-07T08:55:12.815Z,810.00
2022-11-07T09:00:12.732Z,877.50
2022-11-07T09:05:12.672Z,663.75
2022-11-07T09:10:12.611Z,736.88
2022-11-07T09:15:12.551Z,866.25
2022-11-07T09:20:12.491Z,725.62
2022-11-07T09:25:12.430Z,641.25
2022-11-07T09:30:12.368Z,860.62
2022-11-07T09:35:12.305Z,793.12
2022-11-07T09:40:12.251Z,765.00
2022-11-07T09:45:12.224Z,832.50
2022-11-07T09:50:12.104Z,753.75
2022-11-07T09:55:12.046Z,742.50
2022-11-07T10:00:11.985Z,736.88
2022-11-07T10:05:11.938Z,736.88
2022-11-07T10:10:11.873Z,630.00
2022-11-07T10:15:11.809Z,607.50
2022-11-07T10:20:11.739Z,725.62
2022-11-07T10:25:12.011Z,753.75
2022-11-07T10:30:11.611Z,748.12
2022-11-07T10:35:11.559Z,759.38
2022-11-07T10:40:12.090Z,838.12
2022-11-07T10:45:11.438Z,900.00
2022-11-07T10:50:11.371Z,1130.62
2022-11-07T10:55:11.341Z,1136.25
2022-11-07T11:00:11.235Z,1231.88
2022-11-07T11:05:11.204Z,883.12
2022-11-07T11:10:11.131Z,652.50
2022-11-07T11:15:11.065Z,714.38
2022-11-07T11:20:11.002Z,669.38
2022-11-07T11:25:10.965Z,686.25
2022-11-07T11:30:10.867Z,714.38
2022-11-07T11:35:10.815Z,686.25
2022-11-07T11:40:10.749Z,641.25
2022-11-07T11:45:10.686Z,675.00
2022-11-07T11:50:10.607Z,990.00
2022-11-07T11:55:10.549Z,731.25
2022-11-07T12:00:10.482Z,534.38
2022-11-07T12:05:10.409Z,523.12
2022-11-07T12:10:10.360Z,669.38
2022-11-07T12:15:10.283Z,579.38
2022-11-07T12:20:10.219Z,652.50
2022-11-07T12:25:10.162Z,568.12
2022-11-07T12:30:10.092Z,601.88
2022-11-07T12:35:10.053Z,708.75
2022-11-07T12:40:09.954Z,950.62
2022-11-07T12:45:09.912Z,860.62
2022-11-07T12:50:09.842Z,832.50
2022-11-07T12:55:09.796Z,714.38
2022-11-07T13:00:09.736Z,635.62
2022-11-07T13:05:09.654Z,703.12
2022-11-07T13:10:09.639Z,748.12
2022-11-07T13:15:09.528Z,686.25
2022-11-07T13:20:09.563Z,635.62
2022-11-07T13:25:13.411Z,618.75
2022-11-07T13:30:11.181Z,607.50
2022-11-07T13:35:09.261Z,545.62
2022-11-07T13:40:09.210Z,517.50
2022-11-07T13:45:09.128Z,523.12
2022-11-07T13:50:09.080Z,506.25
2022-11-07T13:55:09.014Z,534.38
2022-11-07T14:00:09.036Z,450.00
2022-11-07T14:05:17.129Z,427.50
2022-11-07T14:10:09.825Z,444.38
2022-11-07T14:15:08.768Z,444.38
2022-11-07T14:20:08.800Z,365.62
2022-11-07T14:25:08.688Z,320.62
2022-11-07T14:30:08.641Z,303.75
2022-11-07T14:35:08.509Z,286.88
2022-11-07T14:40:08.509Z,264.38
2022-11-07T14:45:08.442Z,264.38
2022-11-07T14:50:08.338Z,225.00
2022-11-07T14:55:08.281Z,196.88
2022-11-07T15:00:08.206Z,157.50
2022-11-07T15:05:11.149Z,135.00
2022-11-07T15:10:08.082Z,112.50
2022-11-07T15:15:08.031Z,84.38
2022-11-07T15:20:07.969Z,67.50
2022-11-07T15:25:07.885Z,45.00
2022-11-07T15:30:07.817Z,33.75
2022-11-07T15:35:30.064Z,22.50
2022-11-07T15:40:08.777Z,16.88
2022-11-07T15:45:08.167Z,5.62
2022-11-07T15:50:07.575Z,5.62
2022-11-07T15:55:07.516Z,0.00
2022-11-07T16:00:07.486Z,0.00
2022-11-07T16:05:07.385Z,0.00
2022-11-07T16:10:07.354Z,0.00
2022-11-07T16:15:07.299Z,0.00
2022-11-07T16:20:07.261Z,0.00
2022-11-07T16:25:14.012Z,0.00
2022-11-07T16:30:08.111Z,0.00
2022-11-07T16:35:07.031Z,0.00
2022-11-07T16:40:06.951Z,0.00
2022-11-07T16:45:06.882Z,0.00
2022-11-07T16:50:06.832Z,0.00
2022-11-07T16:55:06.966Z,0.00
2022-11-07T17:00:06.704Z,0.00
2022-11-07T17:05:06.616Z,0.00
2022-11-07T17:10:06.581Z,0.00
2022-11-07T17:15:06.511Z,0.00
2022-11-07T17:20:06.445Z,0.00
2022-11-07T17:25:06.385Z,0.00
2022-11-07T17:30:11.666Z,0.00
2022-11-07T17:35:30.575Z,0.00
2022-11-07T17:40:07.526Z,0.00
2022-11-07T17:45:06.177Z,0.00
2022-11-07T17:50:06.079Z,0.00
2022-11-07T17:55:06.007Z,0.00
2022-11-07T18:00:05.950Z,0.00
2022-11-07T18:05:05.886Z,0.00
2022-11-07T18:10:05.828Z,0.00
2022-11-07T18:15:05.748Z,0.00
2022-11-07T18:20:05.710Z,0.00
2022-11-07T18:25:05.650Z,0.00
2022-11-07T18:30:05.578Z,0.00
2022-11-07T18:35:05.530Z,0.00
2022-11-07T18:40:05.460Z,0.00
2022-11-07T18:45:05.397Z,0.00
2022-11-07T18:50:05.336Z,0.00
2022-11-07T18:55:05.259Z,0.00
2022-11-07T19:00:07.963Z,0.00
2022-11-07T19:05:06.145Z,0.00
2022-11-07T19:10:05.082Z,0.00
2022-11-07T19:15:05.035Z,0.00
2022-11-07T19:20:04.952Z,0.00
2022-11-07T19:25:04.922Z,0.00
2022-11-07T19:30:04.948Z,0.00
2022-11-07T19:35:04.774Z,0.00
2022-11-07T19:40:04.704Z,0.00
2022-11-07T19:45:04.654Z,0.00
2022-11-07T19:50:04.596Z,0.00
2022-11-07T19:55:04.515Z,0.00
2022-11-07T20:00:04.465Z,0.00
2022-11-07T20:05:04.389Z,0.00
2022-11-07T20:10:04.321Z,0.00
2022-11-07T20:15:04.275Z,0.00
2022-11-07T20:20:08.334Z,0.00
2022-11-07T20:25:05.154Z,0.00
2022-11-07T20:30:04.039Z,0.00
2022-11-07T20:35:03.997Z,0.00
2022-11-07T20:40:03.942Z,0.00
2022-11-07T20:45:03.887Z,0.00
2022-11-07T20:50:03.783Z,0.00
2022-11-07T20:55:03.716Z,0.00
2022-11-07T21:00:03.650Z,0.00
2022-11-07T21:05:17.061Z,0.00
2022-11-07T21:10:04.554Z,0.00
2022-11-07T21:15:03.424Z,0.00
2022-11-07T21:20:03.369Z,0.00
2022-11-07T21:25:03.309Z,0.00
2022-11-07T21:30:03.350Z,0.00
2022-11-07T21:35:03.172Z,0.00
2022-11-07T21:40:03.106Z,0.00
2022-11-07T21:45:03.048Z,0.00
2022-11-07T21:50:17.697Z,0.00
2022-11-07T21:55:03.934Z,0.00
2022-11-07T22:00:02.852Z,0.00
2022-11-07T22:05:02.800Z,0.00
2022-11-07T22:10:02.737Z,0.00
2022-11-07T22:15:02.671Z,0.00
2022-11-07T22:20:02.599Z,0.00
2022-11-07T22:25:02.568Z,0.00
2022-11-07T22:30:02.490Z,0.00
2022-11-07T22:35:07.832Z,0.00
2022-11-07T22:40:03.365Z,0.00
2022-11-07T22:45:02.307Z,0.00
2022-11-07T22:50:02.232Z,0.00
2022-11-07T22:55:02.188Z,0.00
2022-11-07T23:00:17.944Z,0.00
2022-11-07T23:05:03.149Z,0.00
2022-11-07T23:10:01.994Z,0.00
2022-11-07T23:15:02.258Z,0.00
2022-11-07T23:20:01.871Z,0.00
2022-11-07T23:25:01.790Z,0.00
2022-11-07T23:30:02.680Z,0.00
2022-11-07T23:35:01.673Z,0.00
2022-11-07T23:40:01.623Z,0.00
2022-11-07T23:45:01.531Z,0.00
2022-11-07T23:50:01.498Z,0.00
2022-11-07T23:55:01.434Z,0.00
